Kilauea, HI (96754)

10:46 AM HST on January 25, 2015 (GMT -1000)
Kalihiwai Ridge | Change Station
CLOSE
Current Station
Personal Weather Station
Location: Kilauea, HI
Elevation: 300 ft
Nearby Weather Stations
Active Advisory: High Surf Advisory

Elev 300 ft 22.19 °N, 159.43 °W | Updated 1 second ago

Overcast
Overcast
70.0 °F
Feels Like 70.0 °F
N
3.0
Wind Variable Wind from ESE
Gusts 4.0 mph

Today
High -- | Low -- °F
--% Chance of Precip.
Yesterday
High -- | Low -- °F
Precip. -- in
7:18 AM 6:21 PM
Waxing Crescent, 35% visible
Pressure 30.10 in
Visibility 10.0 miles
Clouds Overcast 4500 ft
Dew Point 60 °F
Humidity 72%
Rainfall 0.00 in
Snow Depth Not available.
UV 1.7 out of 12
Pollen Not available.
Air Quality Not available.
Flu Activity Not available.
METAR PHLI 251953Z 03013KT 10SM OVC045 23/12 A3011 RMK AO2 SLP193 T02280122

More Conditions Fewer Conditions

Pressure 30.10 in
Visibility 10.0 miles
Clouds Overcast 4500 ft
Dew Point 60 °F
Humidity 72%
Rainfall 0.00 in
Snow Depth Not available.
UV 1.7 out of 12
Pollen Not available.
Air Quality Not available.
Flu Activity Not available.
METAR PHLI 251953Z 03013KT 10SM OVC045 23/12 A3011 RMK AO2 SLP193 T02280122

More Conditions Fewer Conditions

10-Day Weather Forecast

Almanac

Astronomy

Jan. 25, 2015 Rise Set
Actual Time
Civil Twilight
Nautical Twilight
Astronomical Twilight
Moon
Length of Visible Light
Length of Day
Tomorrow will be .
, % of the Moon is Illuminated

Today's Extremes

State Highs State Lows

Community

WunderPhotos

Upload Photos

1,790,041 photos uploaded!

WunderBlogs® & News

Nearby

Air Quality

  Air Quality AQ Index Pollutant
Not available.

Snow Depth

Station Depth Elevation

Earthquake Activity

City Distance Mag. Time & Date
Minimum magnitude displayed is 2.5.

Coastal Water Temperatures

Place Temperature

Nearby Weather Stations